sensor_id;sensor_type;location;lat;lon;timestamp;pressure;altitude;pressure_sealevel;temperature;humidity
29941;BME280;16801;53.562;10.038;2024-01-27T00:02:02;102746.63;;;6.35;100.00
29941;BME280;16801;53.562;10.038;2024-01-27T00:05:23;102759.00;;;6.37;100.00
29941;BME280;16801;53.562;10.038;2024-01-27T00:08:44;102748.63;;;6.30;100.00
29941;BME280;16801;53.562;10.038;2024-01-27T00:12:06;102761.06;;;6.31;100.00
29941;BME280;16801;53.562;10.038;2024-01-27T00:15:28;102751.53;;;6.45;100.00
29941;BME280;16801;53.562;10.038;2024-01-27T00:18:49;102752.53;;;6.43;100.00
29941;BME280;16801;53.562;10.038;2024-01-27T00:22:10;102747.59;;;6.32;100.00
29941;BME280;16801;53.562;10.038;2024-01-27T00:25:31;102750.34;;;6.31;100.00
29941;BME280;16801;53.562;10.038;2024-01-27T00:28:52;102752.97;;;6.32;100.00
29941;BME280;16801;53.562;10.038;2024-01-27T00:32:14;102753.41;;;6.43;100.00
29941;BME280;16801;53.562;10.038;2024-01-27T00:35:35;102750.84;;;6.40;100.00
29941;BME280;16801;53.562;10.038;2024-01-27T00:38:56;102748.31;;;6.37;100.00
29941;BME280;16801;53.562;10.038;2024-01-27T00:42:17;102761.69;;;6.37;100.00
29941;BME280;16801;53.562;10.038;2024-01-27T00:45:43;102762.44;;;6.41;100.00
29941;BME280;16801;53.562;10.038;2024-01-27T00:49:05;102771.16;;;6.46;100.00
29941;BME280;16801;53.562;10.038;2024-01-27T00:52:26;102762.13;;;6.49;100.00
29941;BME280;16801;53.562;10.038;2024-01-27T00:55:47;102772.69;;;6.52;100.00
29941;BME280;16801;53.562;10.038;2024-01-27T00:59:10;102777.31;;;6.48;100.00
29941;BME280;16801;53.562;10.038;2024-01-27T01:02:31;102780.63;;;6.55;100.00
29941;BME280;16801;53.562;10.038;2024-01-27T01:05:53;102781.63;;;6.52;100.00
29941;BME280;16801;53.562;10.038;2024-01-27T01:09:14;102793.06;;;6.56;100.00
29941;BME280;16801;53.562;10.038;2024-01-27T01:12:35;102787.84;;;6.53;100.00
29941;BME280;16801;53.562;10.038;2024-01-27T01:15:56;102799.38;;;6.55;100.00
29941;BME280;16801;53.562;10.038;2024-01-27T01:19:17;102796.63;;;6.56;100.00
29941;BME280;16801;53.562;10.038;2024-01-27T01:22:39;102799.19;;;6.59;100.00
29941;BME280;16801;53.562;10.038;2024-01-27T01:26:00;102802.72;;;6.60;100.00
29941;BME280;16801;53.562;10.038;2024-01-27T01:29:21;102806.28;;;6.60;100.00
29941;BME280;16801;53.562;10.038;2024-01-27T01:32:42;102807.78;;;6.45;100.00
29941;BME280;16801;53.562;10.038;2024-01-27T01:36:04;102827.22;;;6.51;100.00
29941;BME280;16801;53.562;10.038;2024-01-27T01:39:26;102819.31;;;6.47;100.00
29941;BME280;16801;53.562;10.038;2024-01-27T01:42:50;102823.25;;;6.61;100.00
29941;BME280;16801;53.562;10.038;2024-01-27T01:46:11;102843.72;;;6.62;100.00
29941;BME280;16801;53.562;10.038;2024-01-27T01:49:32;102849.41;;;6.54;100.00
29941;BME280;16801;53.562;10.038;2024-01-27T01:52:54;102847.06;;;6.47;100.00
29941;BME280;16801;53.562;10.038;2024-01-27T01:56:17;102867.00;;;6.61;100.00
29941;BME280;16801;53.562;10.038;2024-01-27T01:59:38;102866.81;;;6.42;100.00
29941;BME280;16801;53.562;10.038;2024-01-27T02:03:00;102871.19;;;6.45;100.00
29941;BME280;16801;53.562;10.038;2024-01-27T02:06:21;102869.31;;;6.47;100.00
29941;BME280;16801;53.562;10.038;2024-01-27T02:09:42;102874.44;;;6.53;100.00
29941;BME280;16801;53.562;10.038;2024-01-27T02:13:16;102877.88;;;6.57;100.00
29941;BME280;16801;53.562;10.038;2024-01-27T02:16:37;102876.03;;;6.59;100.00
29941;BME280;16801;53.562;10.038;2024-01-27T02:19:58;102883.28;;;6.55;100.00
29941;BME280;16801;53.562;10.038;2024-01-27T02:23:20;102888.44;;;6.61;100.00
29941;BME280;16801;53.562;10.038;2024-01-27T02:26:42;102878.88;;;6.54;100.00
29941;BME280;16801;53.562;10.038;2024-01-27T02:30:06;102895.66;;;6.59;100.00
29941;BME280;16801;53.562;10.038;2024-01-27T02:33:27;102889.03;;;6.68;100.00
29941;BME280;16801;53.562;10.038;2024-01-27T02:36:48;102892.09;;;6.59;100.00
29941;BME280;16801;53.562;10.038;2024-01-27T02:40:10;102897.94;;;6.47;100.00
29941;BME280;16801;53.562;10.038;2024-01-27T02:43:32;102908.28;;;6.56;100.00
29941;BME280;16801;53.562;10.038;2024-01-27T02:46:53;102896.94;;;6.49;100.00
29941;BME280;16801;53.562;10.038;2024-01-27T02:50:14;102892.00;;;6.38;100.00
29941;BME280;16801;53.562;10.038;2024-01-27T02:53:35;102901.31;;;6.28;100.00
29941;BME280;16801;53.562;10.038;2024-01-27T02:56:56;102910.88;;;6.35;100.00
29941;BME280;16801;53.562;10.038;2024-01-27T03:00:19;102909.69;;;6.42;100.00
29941;BME280;16801;53.562;10.038;2024-01-27T03:03:40;102908.44;;;6.51;100.00
29941;BME280;16801;53.562;10.038;2024-01-27T03:07:00;102910.16;;;6.30;100.00
29941;BME280;16801;53.562;10.038;2024-01-27T03:10:21;102912.28;;;6.22;100.00
29941;BME280;16801;53.562;10.038;2024-01-27T03:13:43;102926.38;;;6.27;100.00
29941;BME280;16801;53.562;10.038;2024-01-27T03:17:06;102930.59;;;6.33;100.00
29941;BME280;16801;53.562;10.038;2024-01-27T03:20:27;102923.56;;;6.30;100.00
29941;BME280;16801;53.562;10.038;2024-01-27T03:23:50;102931.25;;;6.16;100.00
29941;BME280;16801;53.562;10.038;2024-01-27T03:27:11;102941.06;;;6.16;100.00
29941;BME280;16801;53.562;10.038;2024-01-27T03:30:32;102935.56;;;6.20;100.00
29941;BME280;16801;53.562;10.038;2024-01-27T03:33:55;102954.13;;;6.25;100.00
29941;BME280;16801;53.562;10.038;2024-01-27T03:37:16;102940.97;;;6.19;100.00
29941;BME280;16801;53.562;10.038;2024-01-27T03:40:37;102942.06;;;6.13;100.00
29941;BME280;16801;53.562;10.038;2024-01-27T03:43:58;102945.28;;;6.23;100.00
29941;BME280;16801;53.562;10.038;2024-01-27T03:47:20;102946.44;;;6.16;100.00
29941;BME280;16801;53.562;10.038;2024-01-27T03:50:42;102948.81;;;6.00;100.00
29941;BME280;16801;53.562;10.038;2024-01-27T03:54:03;102946.25;;;5.97;100.00
29941;BME280;16801;53.562;10.038;2024-01-27T03:57:24;102962.38;;;5.96;100.00
29941;BME280;16801;53.562;10.038;2024-01-27T04:00:45;102959.97;;;5.88;100.00
29941;BME280;16801;53.562;10.038;2024-01-27T04:04:06;102964.28;;;5.92;100.00
29941;BME280;16801;53.562;10.038;2024-01-27T04:07:28;102973.38;;;5.88;100.00
29941;BME280;16801;53.562;10.038;2024-01-27T04:10:49;102973.59;;;5.81;100.00
29941;BME280;16801;53.562;10.038;2024-01-27T04:14:10;102979.47;;;5.92;100.00
29941;BME280;16801;53.562;10.038;2024-01-27T04:17:31;102973.38;;;5.88;100.00
29941;BME280;16801;53.562;10.038;2024-01-27T04:20:52;102969.94;;;5.83;100.00
29941;BME280;16801;53.562;10.038;2024-01-27T04:24:14;102978.28;;;5.74;100.00
29941;BME280;16801;53.562;10.038;2024-01-27T04:27:37;102979.31;;;5.70;100.00
29941;BME280;16801;53.562;10.038;2024-01-27T04:30:58;102989.56;;;5.82;100.00
29941;BME280;16801;53.562;10.038;2024-01-27T04:34:20;102989.47;;;5.60;100.00
29941;BME280;16801;53.562;10.038;2024-01-27T04:37:41;102988.59;;;5.60;100.00
29941;BME280;16801;53.562;10.038;2024-01-27T04:41:05;102997.91;;;5.48;100.00
29941;BME280;16801;53.562;10.038;2024-01-27T04:44:26;103008.41;;;5.54;100.00
29941;BME280;16801;53.562;10.038;2024-01-27T04:47:47;103002.69;;;5.39;100.00
29941;BME280;16801;53.562;10.038;2024-01-27T04:51:08;103007.25;;;5.61;100.00
29941;BME280;16801;53.562;10.038;2024-01-27T04:54:29;103008.88;;;5.65;100.00
29941;BME280;16801;53.562;10.038;2024-01-27T04:57:51;103006.28;;;5.38;100.00
29941;BME280;16801;53.562;10.038;2024-01-27T05:01:12;102999.59;;;5.51;100.00
29941;BME280;16801;53.562;10.038;2024-01-27T05:04:34;103005.59;;;5.57;100.00
29941;BME280;16801;53.562;10.038;2024-01-27T05:07:54;103005.41;;;5.37;100.00
29941;BME280;16801;53.562;10.038;2024-01-27T05:11:16;103007.97;;;5.40;100.00
29941;BME280;16801;53.562;10.038;2024-01-27T05:14:43;103008.28;;;5.31;100.00
29941;BME280;16801;53.562;10.038;2024-01-27T05:18:04;103010.09;;;5.31;100.00
29941;BME280;16801;53.562;10.038;2024-01-27T05:21:25;103023.72;;;5.23;100.00
29941;BME280;16801;53.562;10.038;2024-01-27T05:24:46;103011.66;;;5.10;100.00
29941;BME280;16801;53.562;10.038;2024-01-27T05:28:07;103009.88;;;5.11;100.00
29941;BME280;16801;53.562;10.038;2024-01-27T05:31:30;103020.56;;;5.11;100.00
29941;BME280;16801;53.562;10.038;2024-01-27T05:34:51;103016.38;;;5.02;100.00
29941;BME280;16801;53.562;10.038;2024-01-27T05:38:12;103031.72;;;4.96;100.00
29941;BME280;16801;53.562;10.038;2024-01-27T05:41:33;103030.84;;;4.95;100.00
29941;BME280;16801;53.562;10.038;2024-01-27T05:44:54;103033.63;;;4.92;100.00
29941;BME280;16801;53.562;10.038;2024-01-27T05:48:16;103045.28;;;4.90;100.00
29941;BME280;16801;53.562;10.038;2024-01-27T05:51:38;103048.78;;;4.92;100.00
29941;BME280;16801;53.562;10.038;2024-01-27T05:54:59;103046.22;;;4.87;100.00
29941;BME280;16801;53.562;10.038;2024-01-27T05:58:20;103055.22;;;4.84;100.00
29941;BME280;16801;53.562;10.038;2024-01-27T06:01:41;103045.47;;;4.83;100.00
29941;BME280;16801;53.562;10.038;2024-01-27T06:05:05;103044.63;;;4.81;100.00
29941;BME280;16801;53.562;10.038;2024-01-27T06:08:28;103058.81;;;4.83;100.00
29941;BME280;16801;53.562;10.038;2024-01-27T06:11:49;103066.72;;;4.86;100.00
29941;BME280;16801;53.562;10.038;2024-01-27T06:15:10;103073.78;;;4.89;100.00
29941;BME280;16801;53.562;10.038;2024-01-27T06:18:31;103079.44;;;4.78;100.00
29941;BME280;16801;53.562;10.038;2024-01-27T06:21:54;103088.41;;;4.76;100.00
29941;BME280;16801;53.562;10.038;2024-01-27T06:25:15;103085.97;;;4.68;100.00
29941;BME280;16801;53.562;10.038;2024-01-27T06:28:36;103087.91;;;4.63;100.00
29941;BME280;16801;53.562;10.038;2024-01-27T06:31:57;103080.75;;;4.64;100.00
29941;BME280;16801;53.562;10.038;2024-01-27T06:35:18;103087.13;;;4.60;100.00
29941;BME280;16801;53.562;10.038;2024-01-27T06:38:40;103084.38;;;4.63;100.00
29941;BME280;16801;53.562;10.038;2024-01-27T06:42:01;103088.97;;;4.58;100.00
29941;BME280;16801;53.562;10.038;2024-01-27T06:45:22;103097.09;;;4.53;100.00
29941;BME280;16801;53.562;10.038;2024-01-27T06:48:43;103098.56;;;4.65;100.00
29941;BME280;16801;53.562;10.038;2024-01-27T06:52:04;103112.63;;;4.39;100.00
29941;BME280;16801;53.562;10.038;2024-01-27T06:55:27;103121.41;;;4.44;100.00
29941;BME280;16801;53.562;10.038;2024-01-27T06:58:48;103122.59;;;4.33;100.00
29941;BME280;16801;53.562;10.038;2024-01-27T07:02:09;103118.19;;;4.32;100.00
29941;BME280;16801;53.562;10.038;2024-01-27T07:05:33;103127.88;;;4.36;100.00
29941;BME280;16801;53.562;10.038;2024-01-27T07:08:58;103130.66;;;4.31;100.00
29941;BME280;16801;53.562;10.038;2024-01-27T07:12:20;103135.16;;;4.29;100.00
29941;BME280;16801;53.562;10.038;2024-01-27T07:15:41;103148.50;;;4.29;100.00
29941;BME280;16801;53.562;10.038;2024-01-27T07:19:02;103145.91;;;4.26;100.00
29941;BME280;16801;53.562;10.038;2024-01-27T07:22:23;103151.34;;;4.22;100.00
29941;BME280;16801;53.562;10.038;2024-01-27T07:25:44;103144.06;;;4.28;100.00
29941;BME280;16801;53.562;10.038;2024-01-27T07:29:06;103144.13;;;4.27;100.00
29941;BME280;16801;53.562;10.038;2024-01-27T07:32:27;103147.50;;;4.33;100.00
29941;BME280;16801;53.562;10.038;2024-01-27T07:35:48;103153.19;;;4.20;100.00
29941;BME280;16801;53.562;10.038;2024-01-27T07:39:10;103163.00;;;4.19;100.00
29941;BME280;16801;53.562;10.038;2024-01-27T07:42:31;103164.75;;;4.20;100.00
29941;BME280;16801;53.562;10.038;2024-01-27T07:45:53;103177.88;;;4.29;100.00
29941;BME280;16801;53.562;10.038;2024-01-27T07:49:14;103189.56;;;4.24;100.00
29941;BME280;16801;53.562;10.038;2024-01-27T07:52:35;103179.44;;;4.36;100.00
29941;BME280;16801;53.562;10.038;2024-01-27T07:55:55;103186.91;;;4.24;100.00
29941;BME280;16801;53.562;10.038;2024-01-27T07:59:17;103177.59;;;4.40;100.00
29941;BME280;16801;53.562;10.038;2024-01-27T08:02:39;103178.75;;;4.30;100.00
29941;BME280;16801;53.562;10.038;2024-01-27T08:06:04;103175.44;;;4.20;100.00
29941;BME280;16801;53.562;10.038;2024-01-27T08:09:25;103175.38;;;4.22;100.00
29941;BME280;16801;53.562;10.038;2024-01-27T08:12:46;103170.81;;;4.27;100.00
29941;BME280;16801;53.562;10.038;2024-01-27T08:16:08;103179.25;;;4.44;100.00
29941;BME280;16801;53.562;10.038;2024-01-27T08:19:33;103190.56;;;4.53;100.00
29941;BME280;16801;53.562;10.038;2024-01-27T08:22:54;103202.69;;;4.33;100.00
29941;BME280;16801;53.562;10.038;2024-01-27T08:26:15;103210.47;;;4.42;100.00
29941;BME280;16801;53.562;10.038;2024-01-27T08:29:36;103210.53;;;4.39;100.00
29941;BME280;16801;53.562;10.038;2024-01-27T08:32:57;103194.44;;;4.42;100.00
29941;BME280;16801;53.562;10.038;2024-01-27T08:36:19;103196.84;;;4.52;100.00
29941;BME280;16801;53.562;10.038;2024-01-27T08:39:40;103195.56;;;4.67;100.00
29941;BME280;16801;53.562;10.038;2024-01-27T08:43:01;103196.34;;;5.03;100.00
29941;BME280;16801;53.562;10.038;2024-01-27T08:46:22;103189.53;;;6.59;100.00
29941;BME280;16801;53.562;10.038;2024-01-27T08:49:43;103203.75;;;7.78;100.00
29941;BME280;16801;53.562;10.038;2024-01-27T08:53:05;103204.50;;;8.25;100.00
29941;BME280;16801;53.562;10.038;2024-01-27T08:56:26;103205.78;;;8.58;100.00
29941;BME280;16801;53.562;10.038;2024-01-27T08:59:47;103206.47;;;9.03;100.00
29941;BME280;16801;53.562;10.038;2024-01-27T09:03:08;103203.63;;;9.06;100.00
29941;BME280;16801;53.562;10.038;2024-01-27T09:06:29;103196.34;;;9.65;100.00
29941;BME280;16801;53.562;10.038;2024-01-27T09:09:51;103200.31;;;9.94;100.00
29941;BME280;16801;53.562;10.038;2024-01-27T09:13:12;103204.81;;;10.12;100.00
29941;BME280;16801;53.562;10.038;2024-01-27T09:16:33;103192.00;;;11.51;100.00
29941;BME280;16801;53.562;10.038;2024-01-27T09:19:55;103202.03;;;9.95;100.00
29941;BME280;16801;53.562;10.038;2024-01-27T09:23:15;103199.72;;;10.76;100.00
29941;BME280;16801;53.562;10.038;2024-01-27T09:26:38;103212.09;;;10.80;100.00
29941;BME280;16801;53.562;10.038;2024-01-27T09:29:59;103200.28;;;10.66;100.00
29941;BME280;16801;53.562;10.038;2024-01-27T09:33:20;103207.88;;;11.24;100.00
29941;BME280;16801;53.562;10.038;2024-01-27T09:36:42;103190.06;;;12.91;100.00
29941;BME280;16801;53.562;10.038;2024-01-27T09:40:05;103203.84;;;12.72;100.00
29941;BME280;16801;53.562;10.038;2024-01-27T09:43:28;103205.78;;;13.42;100.00
29941;BME280;16801;53.562;10.038;2024-01-27T09:46:49;103202.78;;;13.87;100.00
29941;BME280;16801;53.562;10.038;2024-01-27T09:50:11;103202.47;;;14.06;100.00
29941;BME280;16801;53.562;10.038;2024-01-27T09:53:32;103189.56;;;14.75;100.00
29941;BME280;16801;53.562;10.038;2024-01-27T09:56:54;103213.28;;;13.93;100.00
29941;BME280;16801;53.562;10.038;2024-01-27T10:00:18;103199.59;;;14.75;100.00
29941;BME280;16801;53.562;10.038;2024-01-27T10:03:40;103192.28;;;14.88;100.00
29941;BME280;16801;53.562;10.038;2024-01-27T10:07:03;103215.09;;;15.73;94.73
29941;BME280;16801;53.562;10.038;2024-01-27T10:10:23;103202.38;;;14.73;96.97
29941;BME280;16801;53.562;10.038;2024-01-27T10:13:44;103220.25;;;15.40;92.98
29941;BME280;16801;53.562;10.038;2024-01-27T10:17:08;103221.00;;;16.27;88.88
29941;BME280;16801;53.562;10.038;2024-01-27T10:20:29;103216.38;;;16.40;88.50
29941;BME280;16801;53.562;10.038;2024-01-27T10:23:50;103208.84;;;18.56;88.56
29941;BME280;16801;53.562;10.038;2024-01-27T10:27:11;103214.31;;;17.13;82.88
29941;BME280;16801;53.562;10.038;2024-01-27T10:30:32;103206.06;;;17.81;81.25
29941;BME280;16801;53.562;10.038;2024-01-27T10:33:56;103220.66;;;17.25;74.58
29941;BME280;16801;53.562;10.038;2024-01-27T10:37:24;103220.66;;;17.47;82.21
29941;BME280;16801;53.562;10.038;2024-01-27T10:40:45;103216.00;;;15.11;80.73
29941;BME280;16801;53.562;10.038;2024-01-27T10:44:06;103218.66;;;14.73;91.31
29941;BME280;16801;53.562;10.038;2024-01-27T10:47:29;103221.09;;;16.02;89.38
29941;BME280;16801;53.562;10.038;2024-01-27T10:50:52;103216.53;;;14.91;80.93
29941;BME280;16801;53.562;10.038;2024-01-27T10:54:15;103205.84;;;14.63;87.98
29941;BME280;16801;53.562;10.038;2024-01-27T10:57:39;103210.53;;;15.74;79.25
29941;BME280;16801;53.562;10.038;2024-01-27T11:01:01;103211.88;;;14.93;86.38
29941;BME280;16801;53.562;10.038;2024-01-27T11:04:24;103214.13;;;16.11;81.68
29941;BME280;16801;53.562;10.038;2024-01-27T11:07:47;103209.97;;;13.88;88.79
29941;BME280;16801;53.562;10.038;2024-01-27T11:11:08;103226.06;;;13.21;97.14
29941;BME280;16801;53.562;10.038;2024-01-27T11:14:29;103208.31;;;15.43;85.42
29941;BME280;16801;53.562;10.038;2024-01-27T11:17:50;103204.53;;;17.99;80.30
29941;BME280;16801;53.562;10.038;2024-01-27T11:21:13;103220.47;;;15.75;75.19
29941;BME280;16801;53.562;10.038;2024-01-27T11:24:35;103226.97;;;14.04;90.68
29941;BME280;16801;53.562;10.038;2024-01-27T11:27:56;103220.63;;;15.84;82.99
29941;BME280;16801;53.562;10.038;2024-01-27T11:31:18;103231.75;;;16.41;79.48
29941;BME280;16801;53.562;10.038;2024-01-27T11:34:43;103222.63;;;15.70;80.77
29941;BME280;16801;53.562;10.038;2024-01-27T11:38:05;103235.63;;;16.73;73.82
29941;BME280;16801;53.562;10.038;2024-01-27T11:41:28;103244.13;;;17.83;70.56
29941;BME280;16801;53.562;10.038;2024-01-27T11:44:50;103236.34;;;16.64;72.87
29941;BME280;16801;53.562;10.038;2024-01-27T11:48:11;103237.66;;;14.61;80.45
29941;BME280;16801;53.562;10.038;2024-01-27T11:51:32;103239.09;;;16.28;80.58
29941;BME280;16801;53.562;10.038;2024-01-27T11:54:54;103245.16;;;16.68;73.94
29941;BME280;16801;53.562;10.038;2024-01-27T11:58:17;103242.44;;;16.08;69.93
29941;BME280;16801;53.562;10.038;2024-01-27T12:01:38;103238.78;;;15.48;76.09
29941;BME280;16801;53.562;10.038;2024-01-27T12:04:59;103256.56;;;14.21;84.70
29941;BME280;16801;53.562;10.038;2024-01-27T12:08:20;103248.72;;;14.58;86.56
29941;BME280;16801;53.562;10.038;2024-01-27T12:11:41;103265.56;;;16.97;75.98
29941;BME280;16801;53.562;10.038;2024-01-27T12:15:04;103272.84;;;15.01;80.23
29941;BME280;16801;53.562;10.038;2024-01-27T12:18:25;103273.81;;;12.48;92.41
29941;BME280;16801;53.562;10.038;2024-01-27T12:21:49;103275.28;;;13.43;91.08
29941;BME280;16801;53.562;10.038;2024-01-27T12:25:11;103280.63;;;12.40;98.50
29941;BME280;16801;53.562;10.038;2024-01-27T12:28:34;103264.75;;;16.37;84.94
29941;BME280;16801;53.562;10.038;2024-01-27T12:31:58;103274.81;;;14.19;80.80
29941;BME280;16801;53.562;10.038;2024-01-27T12:35:20;103266.53;;;13.38;92.06
29941;BME280;16801;53.562;10.038;2024-01-27T12:38:41;103266.16;;;13.72;87.55
29941;BME280;16801;53.562;10.038;2024-01-27T12:42:02;103240.41;;;15.99;80.74
29941;BME280;16801;53.562;10.038;2024-01-27T12:45:23;103244.75;;;16.02;78.59
29941;BME280;16801;53.562;10.038;2024-01-27T12:48:45;103246.38;;;16.64;74.66
29941;BME280;16801;53.562;10.038;2024-01-27T12:52:06;103253.00;;;12.94;86.42
29941;BME280;16801;53.562;10.038;2024-01-27T12:55:27;103251.28;;;12.63;95.21
29941;BME280;16801;53.562;10.038;2024-01-27T12:58:49;103259.25;;;13.10;97.65
29941;BME280;16801;53.562;10.038;2024-01-27T13:02:10;103252.28;;;11.19;100.00
29941;BME280;16801;53.562;10.038;2024-01-27T13:05:32;103252.38;;;11.98;100.00
29941;BME280;16801;53.562;10.038;2024-01-27T13:08:53;103247.59;;;11.22;100.00
29941;BME280;16801;53.562;10.038;2024-01-27T13:12:14;103253.72;;;11.59;100.00
29941;BME280;16801;53.562;10.038;2024-01-27T13:15:35;103250.72;;;11.80;100.00
29941;BME280;16801;53.562;10.038;2024-01-27T13:18:56;103249.72;;;11.66;100.00
29941;BME280;16801;53.562;10.038;2024-01-27T13:22:18;103248.16;;;11.62;100.00
29941;BME280;16801;53.562;10.038;2024-01-27T13:25:40;103254.75;;;11.56;100.00
29941;BME280;16801;53.562;10.038;2024-01-27T13:29:01;103259.66;;;12.59;100.00
29941;BME280;16801;53.562;10.038;2024-01-27T13:32:22;103261.22;;;12.63;100.00
29941;BME280;16801;53.562;10.038;2024-01-27T13:35:43;103262.25;;;12.15;100.00
29941;BME280;16801;53.562;10.038;2024-01-27T13:39:07;103256.63;;;11.39;100.00
29941;BME280;16801;53.562;10.038;2024-01-27T13:42:29;103258.16;;;11.10;100.00
29941;BME280;16801;53.562;10.038;2024-01-27T13:45:49;103251.38;;;11.03;100.00
29941;BME280;16801;53.562;10.038;2024-01-27T13:49:10;103252.56;;;12.72;100.00
29941;BME280;16801;53.562;10.038;2024-01-27T13:52:31;103265.59;;;12.50;100.00
29941;BME280;16801;53.562;10.038;2024-01-27T13:55:53;103271.13;;;11.53;100.00
29941;BME280;16801;53.562;10.038;2024-01-27T13:59:14;103282.78;;;11.04;100.00
29941;BME280;16801;53.562;10.038;2024-01-27T14:02:35;103263.22;;;10.30;100.00
29941;BME280;16801;53.562;10.038;2024-01-27T14:05:56;103268.44;;;10.69;100.00
29941;BME280;16801;53.562;10.038;2024-01-27T14:09:17;103274.72;;;10.34;100.00
29941;BME280;16801;53.562;10.038;2024-01-27T14:12:40;103287.28;;;9.20;100.00
29941;BME280;16801;53.562;10.038;2024-01-27T14:16:01;103285.78;;;9.33;100.00
29941;BME280;16801;53.562;10.038;2024-01-27T14:19:22;103266.28;;;9.86;100.00
29941;BME280;16801;53.562;10.038;2024-01-27T14:22:43;103276.25;;;9.65;100.00
29941;BME280;16801;53.562;10.038;2024-01-27T14:26:04;103281.56;;;9.08;100.00
29941;BME280;16801;53.562;10.038;2024-01-27T14:29:28;103279.22;;;9.00;100.00
29941;BME280;16801;53.562;10.038;2024-01-27T14:32:50;103282.50;;;8.86;100.00
29941;BME280;16801;53.562;10.038;2024-01-27T14:36:11;103271.97;;;8.82;100.00
29941;BME280;16801;53.562;10.038;2024-01-27T14:39:32;103293.09;;;9.11;100.00
29941;BME280;16801;53.562;10.038;2024-01-27T14:42:53;103280.22;;;8.77;100.00
29941;BME280;16801;53.562;10.038;2024-01-27T14:46:17;103289.03;;;9.01;100.00
29941;BME280;16801;53.562;10.038;2024-01-27T14:49:38;103282.75;;;8.80;100.00
29941;BME280;16801;53.562;10.038;2024-01-27T14:53:00;103299.03;;;8.77;100.00
29941;BME280;16801;53.562;10.038;2024-01-27T14:56:22;103285.97;;;8.68;100.00
29941;BME280;16801;53.562;10.038;2024-01-27T14:59:43;103294.19;;;8.44;100.00
29941;BME280;16801;53.562;10.038;2024-01-27T15:03:05;103286.94;;;8.46;100.00
29941;BME280;16801;53.562;10.038;2024-01-27T15:06:26;103289.56;;;8.47;100.00
29941;BME280;16801;53.562;10.038;2024-01-27T15:09:47;103290.25;;;8.31;100.00
29941;BME280;16801;53.562;10.038;2024-01-27T15:13:08;103284.59;;;8.15;100.00
29941;BME280;16801;53.562;10.038;2024-01-27T15:16:30;103275.78;;;8.12;100.00
29941;BME280;16801;53.562;10.038;2024-01-27T15:19:53;103289.13;;;7.91;100.00
29941;BME280;16801;53.562;10.038;2024-01-27T15:23:15;103296.72;;;7.80;100.00
29941;BME280;16801;53.562;10.038;2024-01-27T15:26:36;103290.19;;;7.87;100.00
29941;BME280;16801;53.562;10.038;2024-01-27T15:29:57;103287.09;;;7.75;100.00
29941;BME280;16801;53.562;10.038;2024-01-27T15:33:18;103286.34;;;7.71;100.00
29941;BME280;16801;53.562;10.038;2024-01-27T15:36:40;103292.81;;;7.89;100.00
29941;BME280;16801;53.562;10.038;2024-01-27T15:40:01;103290.19;;;7.87;100.00
29941;BME280;16801;53.562;10.038;2024-01-27T15:43:22;103293.75;;;7.65;100.00
29941;BME280;16801;53.562;10.038;2024-01-27T15:46:43;103298.97;;;7.69;100.00
29941;BME280;16801;53.562;10.038;2024-01-27T15:50:05;103304.91;;;7.54;100.00
29941;BME280;16801;53.562;10.038;2024-01-27T15:53:27;103313.34;;;7.44;100.00
29941;BME280;16801;53.562;10.038;2024-01-27T15:56:48;103318.47;;;7.50;100.00
29941;BME280;16801;53.562;10.038;2024-01-27T16:00:09;103324.66;;;7.52;100.00
29941;BME280;16801;53.562;10.038;2024-01-27T16:03:30;103324.59;;;7.53;100.00
29941;BME280;16801;53.562;10.038;2024-01-27T16:06:51;103322.81;;;7.54;100.00
29941;BME280;16801;53.562;10.038;2024-01-27T16:10:13;103334.91;;;7.41;100.00
29941;BME280;16801;53.562;10.038;2024-01-27T16:13:34;103328.63;;;7.42;100.00
29941;BME280;16801;53.562;10.038;2024-01-27T16:16:55;103334.28;;;7.34;100.00
29941;BME280;16801;53.562;10.038;2024-01-27T16:20:16;103336.06;;;7.34;100.00
29941;BME280;16801;53.562;10.038;2024-01-27T16:23:38;103336.25;;;7.29;100.00
29941;BME280;16801;53.562;10.038;2024-01-27T16:27:02;103335.50;;;7.24;100.00
29941;BME280;16801;53.562;10.038;2024-01-27T16:30:23;103329.31;;;7.22;100.00
29941;BME280;16801;53.562;10.038;2024-01-27T16:33:44;103330.50;;;7.15;100.00
29941;BME280;16801;53.562;10.038;2024-01-27T16:37:05;103339.38;;;7.17;100.00
29941;BME280;16801;53.562;10.038;2024-01-27T16:40:27;103350.19;;;7.14;100.00
29941;BME280;16801;53.562;10.038;2024-01-27T16:43:49;103344.75;;;7.15;100.00
29941;BME280;16801;53.562;10.038;2024-01-27T16:47:11;103352.16;;;7.09;100.00
29941;BME280;16801;53.562;10.038;2024-01-27T16:50:32;103358.13;;;7.17;100.00
29941;BME280;16801;53.562;10.038;2024-01-27T16:53:52;103358.22;;;7.14;100.00
29941;BME280;16801;53.562;10.038;2024-01-27T16:57:13;103357.19;;;7.18;100.00
29941;BME280;16801;53.562;10.038;2024-01-27T17:00:36;103354.19;;;7.02;100.00
29941;BME280;16801;53.562;10.038;2024-01-27T17:03:57;103358.06;;;6.94;100.00
29941;BME280;16801;53.562;10.038;2024-01-27T17:07:18;103362.78;;;6.86;100.00
29941;BME280;16801;53.562;10.038;2024-01-27T17:10:39;103375.88;;;6.95;100.00
29941;BME280;16801;53.562;10.038;2024-01-27T17:14:00;103364.28;;;6.94;100.00
29941;BME280;16801;53.562;10.038;2024-01-27T17:17:22;103372.28;;;6.96;100.00